createdAt,value
2022-07-25T00:01:05.706Z,1002.90
2022-07-25T00:03:39.137Z,1002.87
2022-07-25T00:06:13.488Z,1002.84
2022-07-25T00:08:44.742Z,1002.82
2022-07-25T00:11:17.770Z,1002.79
2022-07-25T00:13:50.698Z,1002.76
2022-07-25T00:16:23.827Z,1002.73
2022-07-25T00:18:56.693Z,1002.71
2022-07-25T00:21:29.746Z,1002.68
2022-07-25T00:24:03.176Z,1002.66
2022-07-25T00:26:39.959Z,1002.64
2022-07-25T00:29:08.763Z,1002.63
2022-07-25T00:31:41.786Z,1002.62
2022-07-25T00:34:14.747Z,1002.59
2022-07-25T00:36:47.714Z,1002.57
2022-07-25T00:39:20.748Z,1002.55
2022-07-25T00:41:53.781Z,1002.53
2022-07-25T00:44:26.748Z,1002.50
2022-07-25T00:46:59.742Z,1002.49
2022-07-25T00:49:32.806Z,1002.46
2022-07-25T00:52:05.796Z,1002.44
2022-07-25T00:54:38.741Z,1002.42
2022-07-25T00:57:11.796Z,1002.41
2022-07-25T00:59:44.762Z,1002.40
2022-07-25T01:02:17.867Z,1002.36
2022-07-25T01:04:50.784Z,1002.32
2022-07-25T01:07:23.807Z,1002.28
2022-07-25T01:09:56.816Z,1002.23
2022-07-25T01:12:29.823Z,1002.18
2022-07-25T01:15:02.761Z,1002.15
2022-07-25T01:17:35.851Z,1002.11
2022-07-25T01:20:08.797Z,1002.08
2022-07-25T01:22:41.825Z,1002.06
2022-07-25T01:25:14.848Z,1002.04
2022-07-25T01:27:52.774Z,1002.01
2022-07-25T01:30:20.801Z,1002.01
2022-07-25T01:32:53.845Z,1001.99
2022-07-25T01:35:26.818Z,1001.99
2022-07-25T01:37:59.807Z,1001.98
2022-07-25T01:40:32.826Z,1001.96
2022-07-25T01:43:05.840Z,1001.94
2022-07-25T01:45:38.824Z,1001.92
2022-07-25T01:48:11.817Z,1001.90
2022-07-25T01:50:44.646Z,1001.88
2022-07-25T01:53:17.803Z,1001.86
2022-07-25T01:55:50.862Z,1001.85
2022-07-25T01:58:23.879Z,1001.86
2022-07-25T02:00:57.036Z,1001.87
2022-07-25T02:03:31.823Z,1001.88
2022-07-25T02:06:04.883Z,1001.88
2022-07-25T02:08:37.854Z,1001.88
2022-07-25T02:11:10.846Z,1001.88
2022-07-25T02:13:43.889Z,1001.87
2022-07-25T02:16:16.879Z,1001.86
2022-07-25T02:18:49.904Z,1001.86
2022-07-25T02:21:22.904Z,1001.83
2022-07-25T02:23:55.885Z,1001.80
2022-07-25T02:26:28.923Z,1001.77
2022-07-25T02:29:01.932Z,1001.76
2022-07-25T02:31:34.942Z,1001.72
2022-07-25T02:34:08.330Z,1001.69
2022-07-25T02:36:40.883Z,1001.65
2022-07-25T02:39:13.924Z,1001.61
2022-07-25T02:41:46.948Z,1001.59
2022-07-25T02:47:03.915Z,1001.56
2022-07-25T02:49:36.915Z,1001.56
2022-07-25T02:52:09.897Z,1001.54
2022-07-25T02:54:42.927Z,1001.55
2022-07-25T02:57:15.931Z,1001.53
2022-07-25T02:59:48.939Z,1001.53
2022-07-25T03:02:21.930Z,1001.52
2022-07-25T03:04:54.984Z,1001.53
2022-07-25T03:07:27.914Z,1001.53
2022-07-25T03:10:00.919Z,1001.53
2022-07-25T03:12:33.964Z,1001.52
2022-07-25T03:15:06.963Z,1001.52
2022-07-25T03:17:39.929Z,1001.51
2022-07-25T03:20:12.951Z,1001.50
2022-07-25T03:22:45.941Z,1001.47
2022-07-25T03:25:21.417Z,1001.45
2022-07-25T03:27:51.953Z,1001.43
2022-07-25T03:30:24.977Z,1001.44
2022-07-25T03:32:57.883Z,1001.45
2022-07-25T03:35:30.993Z,1001.46
2022-07-25T03:38:03.981Z,1001.48
2022-07-25T03:40:36.738Z,1001.47
2022-07-25T03:43:09.996Z,1001.47
2022-07-25T03:45:43.072Z,1001.47
2022-07-25T03:48:15.991Z,1001.46
2022-07-25T03:50:48.983Z,1001.45
2022-07-25T03:53:22.004Z,1001.44
2022-07-25T03:55:54.999Z,1001.42
2022-07-25T03:58:28.047Z,1001.39
2022-07-25T04:01:01.098Z,1001.40
2022-07-25T04:03:34.016Z,1001.39
2022-07-25T04:06:07.002Z,1001.38
2022-07-25T04:08:40.006Z,1001.37
2022-07-25T04:11:12.858Z,1001.37
2022-07-25T04:13:45.816Z,1001.36
2022-07-25T04:16:22.362Z,1001.36
2022-07-25T04:18:51.893Z,1001.36
2022-07-25T04:21:24.864Z,1001.35
2022-07-25T04:23:57.721Z,1001.33
2022-07-25T04:26:30.765Z,1001.31
2022-07-25T04:29:04.055Z,1001.28
2022-07-25T04:31:37.214Z,1001.26
2022-07-25T04:34:11.899Z,1001.23
2022-07-25T04:36:45.082Z,1001.21
2022-07-25T04:39:18.054Z,1001.19
2022-07-25T04:41:51.133Z,1001.17
2022-07-25T04:44:24.061Z,1001.14
2022-07-25T04:46:57.083Z,1001.11
2022-07-25T04:49:30.060Z,1001.08
2022-07-25T04:52:03.080Z,1001.07
2022-07-25T04:54:36.081Z,1001.04
2022-07-25T04:57:09.084Z,1001.03
2022-07-25T04:59:42.091Z,1001.02
2022-07-25T05:02:15.184Z,1001.03
2022-07-25T05:04:48.091Z,1001.04
2022-07-25T05:07:21.157Z,1001.04
2022-07-25T05:09:54.155Z,1001.03
2022-07-25T05:12:27.080Z,1001.04
2022-07-25T05:15:00.132Z,1001.04
2022-07-25T05:17:33.100Z,1001.07
2022-07-25T05:20:06.112Z,1001.08
2022-07-25T05:22:39.111Z,1001.08
2022-07-25T05:25:12.142Z,1001.08
2022-07-25T05:27:45.159Z,1001.07
2022-07-25T05:30:18.130Z,1001.06
2022-07-25T05:32:51.115Z,1001.05
2022-07-25T05:35:24.137Z,1001.05
2022-07-25T05:37:57.179Z,1001.03
2022-07-25T05:40:30.205Z,1001.00
2022-07-25T05:43:03.773Z,1000.99
2022-07-25T05:45:36.182Z,1000.97
2022-07-25T05:48:08.947Z,1000.96
2022-07-25T05:50:41.999Z,1000.94
2022-07-25T05:53:14.952Z,1000.93
2022-07-25T05:55:48.194Z,1000.93
2022-07-25T05:58:23.916Z,1000.93
2022-07-25T06:00:53.896Z,1000.91
2022-07-25T06:03:27.317Z,1000.91
2022-07-25T06:06:00.189Z,1000.90
2022-07-25T06:08:33.162Z,1000.89
2022-07-25T06:11:05.880Z,1000.85
2022-07-25T06:13:38.973Z,1000.82
2022-07-25T06:16:12.032Z,1000.79
2022-07-25T06:18:45.216Z,1000.78
2022-07-25T06:21:17.895Z,1000.77
2022-07-25T06:23:50.917Z,1000.74
2022-07-25T06:26:24.019Z,1000.75
2022-07-25T06:28:57.268Z,1000.73
2022-07-25T06:31:30.297Z,1000.71
2022-07-25T06:34:03.577Z,1000.71
2022-07-25T06:36:36.227Z,1000.70
2022-07-25T06:39:08.974Z,1000.68
2022-07-25T06:41:42.045Z,1000.66
2022-07-25T06:44:15.044Z,1000.66
2022-07-25T06:46:47.964Z,1000.64
2022-07-25T06:49:20.949Z,1000.62
2022-07-25T06:51:53.972Z,1000.61
2022-07-25T06:54:26.949Z,1000.60
2022-07-25T06:57:00.274Z,1000.60
2022-07-25T06:59:33.262Z,1000.59
2022-07-25T07:02:05.954Z,1000.57
2022-07-25T07:04:38.945Z,1000.56
2022-07-25T07:07:11.961Z,1000.53
2022-07-25T07:09:45.293Z,1000.51
2022-07-25T07:12:18.290Z,1000.50
2022-07-25T07:14:51.189Z,1000.49
2022-07-25T07:17:24.292Z,1000.48
2022-07-25T07:19:57.317Z,1000.48
2022-07-25T07:22:30.326Z,1000.47
2022-07-25T07:25:03.283Z,1000.45
2022-07-25T07:27:36.319Z,1000.46
2022-07-25T07:30:09.474Z,1000.47
2022-07-25T07:32:42.999Z,1000.46
2022-07-25T07:35:16.327Z,1000.44
2022-07-25T07:37:49.318Z,1000.43
2022-07-25T07:40:22.302Z,1000.40
2022-07-25T07:42:55.326Z,1000.41
2022-07-25T07:45:28.356Z,1000.42
2022-07-25T07:48:01.027Z,1000.40
2022-07-25T07:50:34.035Z,1000.39
2022-07-25T07:53:07.320Z,1000.38
2022-07-25T07:55:40.283Z,1000.38
2022-07-25T07:58:13.341Z,1000.37
2022-07-25T08:00:46.343Z,1000.35
2022-07-25T08:03:19.510Z,1000.34
2022-07-25T08:05:52.315Z,1000.34
2022-07-25T08:08:30.614Z,1000.33
2022-07-25T08:10:59.031Z,1000.35
2022-07-25T08:13:31.062Z,1000.37
2022-07-25T08:16:04.207Z,1000.38
2022-07-25T08:18:37.390Z,1000.39
2022-07-25T08:23:44.384Z,1000.40
2022-07-25T08:26:17.385Z,1000.40
2022-07-25T08:29:00.005Z,1000.42
2022-07-25T08:31:23.492Z,1000.44
2022-07-25T08:33:56.411Z,1000.43
2022-07-25T08:36:34.555Z,1000.41
2022-07-25T08:39:02.409Z,1000.41
2022-07-25T08:41:35.386Z,1000.40
2022-07-25T08:44:08.708Z,1000.39
2022-07-25T08:46:41.233Z,1000.38
2022-07-25T08:49:14.163Z,1000.38
2022-07-25T08:51:47.452Z,1000.37
2022-07-25T08:54:20.405Z,1000.35
2022-07-25T08:56:53.112Z,1000.33
2022-07-25T08:59:26.415Z,1000.29
2022-07-25T09:01:59.585Z,1000.26
2022-07-25T09:04:32.441Z,1000.23
2022-07-25T09:07:08.232Z,1000.21
2022-07-25T09:09:38.462Z,1000.20
2022-07-25T09:12:12.460Z,1000.18
2022-07-25T09:14:45.440Z,1000.16
2022-07-25T09:17:22.604Z,1000.15
2022-07-25T09:19:51.408Z,1000.12
2022-07-25T09:22:24.148Z,1000.09
2022-07-25T09:24:57.444Z,1000.05
2022-07-25T09:27:30.465Z,1000.01
2022-07-25T09:30:03.456Z,999.98
2022-07-25T09:32:36.469Z,999.94
2022-07-25T09:35:09.578Z,999.93
2022-07-25T09:37:44.443Z,999.89
2022-07-25T09:40:17.456Z,999.87
2022-07-25T09:42:50.173Z,999.85
2022-07-25T09:45:27.069Z,999.82
2022-07-25T09:47:56.187Z,999.78
2022-07-25T09:50:29.631Z,999.76
2022-07-25T09:53:02.261Z,999.73
2022-07-25T09:55:35.193Z,999.71
2022-07-25T09:58:08.275Z,999.68
2022-07-25T10:00:43.603Z,999.68
2022-07-25T10:03:17.325Z,999.67
2022-07-25T10:05:50.313Z,999.67
2022-07-25T10:08:23.258Z,999.65
2022-07-25T10:10:56.217Z,999.62
2022-07-25T10:13:29.238Z,999.60
2022-07-25T10:16:02.232Z,999.59
2022-07-25T10:18:35.266Z,999.57
2022-07-25T10:21:24.381Z,999.53
2022-07-25T10:23:41.354Z,999.50
2022-07-25T10:26:14.605Z,999.48
2022-07-25T10:28:47.546Z,999.47
2022-07-25T10:31:20.547Z,999.46
2022-07-25T10:33:53.549Z,999.46
2022-07-25T10:36:26.557Z,999.43
2022-07-25T10:38:59.568Z,999.41
2022-07-25T10:41:32.401Z,999.38
2022-07-25T10:44:05.747Z,999.34
2022-07-25T10:46:38.438Z,999.30
2022-07-25T10:49:12.044Z,999.27
2022-07-25T10:51:44.606Z,999.25
2022-07-25T10:54:17.617Z,999.23
2022-07-25T10:56:50.597Z,999.19
2022-07-25T10:59:23.628Z,999.17
2022-07-25T11:01:56.563Z,999.15
2022-07-25T11:04:29.402Z,999.14
2022-07-25T11:07:02.285Z,999.11
2022-07-25T11:09:35.410Z,999.08
2022-07-25T11:12:08.376Z,999.08
2022-07-25T11:14:41.418Z,999.06
2022-07-25T11:17:14.458Z,999.03
2022-07-25T11:19:47.407Z,999.01
2022-07-25T11:22:20.461Z,998.99
2022-07-25T11:24:53.422Z,998.98
2022-07-25T11:27:26.444Z,998.96
2022-07-25T11:29:59.624Z,998.93
2022-07-25T11:32:32.655Z,998.90
2022-07-25T11:35:05.644Z,998.89
2022-07-25T11:37:38.366Z,998.89
2022-07-25T11:40:11.450Z,998.88
2022-07-25T11:42:44.452Z,998.87
2022-07-25T11:45:17.359Z,998.87
2022-07-25T11:47:50.473Z,998.88
2022-07-25T11:50:23.685Z,998.88
2022-07-25T11:52:56.669Z,998.88
2022-07-25T11:55:29.660Z,998.86
2022-07-25T11:58:02.431Z,998.87
2022-07-25T12:00:35.398Z,998.87
2022-07-25T12:03:08.620Z,998.87
2022-07-25T12:05:41.487Z,998.88
2022-07-25T12:08:14.684Z,998.90
2022-07-25T12:10:47.755Z,998.92
2022-07-25T12:13:20.715Z,998.93
2022-07-25T12:15:53.709Z,998.93
2022-07-25T12:18:26.757Z,998.95
2022-07-25T12:20:59.666Z,998.96
2022-07-25T12:23:35.421Z,998.95
2022-07-25T12:26:08.726Z,998.93
2022-07-25T12:28:41.717Z,998.93
2022-07-25T12:31:14.911Z,998.88
2022-07-25T12:33:47.423Z,998.84
2022-07-25T12:36:20.754Z,998.78
2022-07-25T12:38:53.791Z,998.75
2022-07-25T12:41:26.785Z,998.73
2022-07-25T12:43:59.762Z,998.70
2022-07-25T12:46:32.741Z,998.68
2022-07-25T12:49:06.243Z,998.65
2022-07-25T12:51:38.554Z,998.63
2022-07-25T12:54:11.727Z,998.63
2022-07-25T12:56:44.483Z,998.62
2022-07-25T12:59:17.737Z,998.61
2022-07-25T13:01:50.968Z,998.59
2022-07-25T13:04:23.789Z,998.57
2022-07-25T13:06:56.530Z,998.56
2022-07-25T13:09:29.843Z,998.54
2022-07-25T13:12:02.498Z,998.54
2022-07-25T13:14:35.825Z,998.52
2022-07-25T13:17:08.820Z,998.51
2022-07-25T13:19:41.828Z,998.52
2022-07-25T13:22:14.813Z,998.53
2022-07-25T13:24:47.792Z,998.56
2022-07-25T13:27:20.833Z,998.59
2022-07-25T13:29:53.495Z,998.62
2022-07-25T13:32:26.618Z,998.61
2022-07-25T13:34:59.803Z,998.61
2022-07-25T13:37:32.861Z,998.60
2022-07-25T13:40:05.518Z,998.61
2022-07-25T13:42:38.602Z,998.59
2022-07-25T13:45:11.881Z,998.57
2022-07-25T13:47:44.845Z,998.55
2022-07-25T13:50:17.935Z,998.53
2022-07-25T13:52:50.829Z,998.51
2022-07-25T13:55:23.887Z,998.48
2022-07-25T13:57:56.636Z,998.45
2022-07-25T14:00:29.663Z,998.43
2022-07-25T14:03:02.535Z,998.42
2022-07-25T14:05:35.867Z,998.43
2022-07-25T14:08:08.553Z,998.44
2022-07-25T14:10:41.671Z,998.44
2022-07-25T14:13:14.934Z,998.45
2022-07-25T14:15:47.886Z,998.45
2022-07-25T14:18:20.566Z,998.42
2022-07-25T14:20:53.569Z,998.41
2022-07-25T14:23:30.140Z,998.36
2022-07-25T14:25:59.905Z,998.31
2022-07-25T14:28:32.843Z,998.28
2022-07-25T14:31:05.617Z,998.25
2022-07-25T14:33:38.825Z,998.23
2022-07-25T14:36:11.909Z,998.22
2022-07-25T14:38:44.922Z,998.18
2022-07-25T14:41:17.968Z,998.15
2022-07-25T14:43:50.982Z,998.13
2022-07-25T14:46:23.631Z,998.10
2022-07-25T14:48:56.775Z,998.09
2022-07-25T14:51:29.676Z,998.06
2022-07-25T14:54:02.961Z,998.03
2022-07-25T14:56:35.635Z,998.00
2022-07-25T14:59:09.196Z,997.99
2022-07-25T15:01:41.740Z,997.97
2022-07-25T15:04:14.940Z,997.97
2022-07-25T15:06:47.755Z,997.98
2022-07-25T15:09:20.692Z,997.99
2022-07-25T15:11:53.999Z,998.00
2022-07-25T15:14:26.759Z,998.02
2022-07-25T15:17:00.019Z,998.01
2022-07-25T15:19:32.844Z,998.03
2022-07-25T15:22:05.671Z,998.04
2022-07-25T15:24:57.679Z,998.04
2022-07-25T15:27:12.069Z,998.04
2022-07-25T15:29:44.987Z,998.03
2022-07-25T15:32:18.076Z,998.02
2022-07-25T15:34:50.694Z,998.01
2022-07-25T15:37:23.761Z,997.99
2022-07-25T15:39:56.780Z,997.96
2022-07-25T15:42:30.024Z,997.96
2022-07-25T15:45:31.945Z,997.93
2022-07-25T15:47:36.053Z,997.94
2022-07-25T15:50:08.821Z,997.96
2022-07-25T15:52:42.062Z,997.95
2022-07-25T15:55:14.838Z,997.98
2022-07-25T15:57:47.708Z,997.97
2022-07-25T16:00:23.713Z,997.98
2022-07-25T16:02:55.808Z,998.00
2022-07-25T16:05:28.837Z,998.01
2022-07-25T16:08:01.727Z,998.02
2022-07-25T16:10:34.715Z,998.02
2022-07-25T16:13:07.879Z,998.04
2022-07-25T16:15:40.737Z,998.08
2022-07-25T16:18:13.733Z,998.13
2022-07-25T16:20:46.882Z,998.16
2022-07-25T16:23:19.855Z,998.21
2022-07-25T16:25:53.116Z,998.26
2022-07-25T16:28:25.770Z,998.33
2022-07-25T16:30:59.030Z,998.37
2022-07-25T16:33:31.908Z,998.43
2022-07-25T16:36:04.766Z,998.51
2022-07-25T16:38:37.892Z,998.60
2022-07-25T16:41:10.797Z,998.65
2022-07-25T16:43:44.097Z,998.70
2022-07-25T16:46:16.932Z,998.73
2022-07-25T16:48:49.880Z,998.77
2022-07-25T16:51:22.895Z,998.81
2022-07-25T16:53:55.793Z,998.85
2022-07-25T16:56:28.818Z,998.90
2022-07-25T16:59:01.821Z,998.95
2022-07-25T17:01:34.958Z,999.00
2022-07-25T17:04:08.127Z,999.04
2022-07-25T17:06:41.687Z,999.08
2022-07-25T17:09:14.119Z,999.13
2022-07-25T17:11:46.949Z,999.15
2022-07-25T17:14:19.948Z,999.18
2022-07-25T17:16:52.923Z,999.20
2022-07-25T17:19:25.932Z,999.19
2022-07-25T17:21:58.838Z,999.22
2022-07-25T17:24:31.878Z,999.24
2022-07-25T17:27:05.147Z,999.25
2022-07-25T17:29:37.838Z,999.27
2022-07-25T17:32:10.852Z,999.29
2022-07-25T17:34:43.842Z,999.31
2022-07-25T17:37:18.950Z,999.32
2022-07-25T17:39:51.964Z,999.34
2022-07-25T17:42:24.906Z,999.37
2022-07-25T17:44:57.885Z,999.38
2022-07-25T17:47:30.886Z,999.41
2022-07-25T17:50:04.194Z,999.43
2022-07-25T17:52:37.144Z,999.47
2022-07-25T17:55:10.178Z,999.52
2022-07-25T17:57:43.227Z,999.56
2022-07-25T18:00:16.199Z,999.58
2022-07-25T18:02:48.945Z,999.62
2022-07-25T18:05:22.050Z,999.65
2022-07-25T18:07:54.933Z,999.67
2022-07-25T18:10:28.201Z,999.71
2022-07-25T18:13:01.370Z,999.75
2022-07-25T18:15:35.326Z,999.79
2022-07-25T18:18:08.058Z,999.83
2022-07-25T18:20:40.913Z,999.86
2022-07-25T18:23:14.035Z,999.90
2022-07-25T18:25:47.032Z,999.91
2022-07-25T18:28:20.288Z,999.95
2022-07-25T18:30:52.992Z,999.98
2022-07-25T18:33:25.977Z,1000.02
2022-07-25T18:36:00.889Z,1000.08
2022-07-25T18:38:32.238Z,1000.12
2022-07-25T18:41:28.042Z,1000.15
2022-07-25T18:43:38.264Z,1000.18
2022-07-25T18:46:11.305Z,1000.20
2022-07-25T18:48:44.493Z,1000.23
2022-07-25T18:51:17.058Z,1000.26
2022-07-25T18:53:50.076Z,1000.33
2022-07-25T18:56:23.023Z,1000.37
2022-07-25T18:58:56.285Z,1000.41
2022-07-25T19:01:29.094Z,1000.46
2022-07-25T19:04:01.961Z,1000.50
2022-07-25T19:06:35.119Z,1000.55
2022-07-25T19:09:08.004Z,1000.62
2022-07-25T19:11:42.426Z,1000.69
2022-07-25T19:14:13.989Z,1000.74
2022-07-25T19:16:47.108Z,1000.80
2022-07-25T19:19:20.010Z,1000.89
2022-07-25T19:21:53.148Z,1000.97
2022-07-25T19:24:26.138Z,1001.03
2022-07-25T19:26:59.036Z,1001.14
2022-07-25T19:29:32.196Z,1001.19
2022-07-25T19:32:05.323Z,1001.23
2022-07-25T19:34:38.359Z,1001.29
2022-07-25T19:37:11.342Z,1001.33
2022-07-25T19:39:44.015Z,1001.34
2022-07-25T19:42:17.060Z,1001.37
2022-07-25T19:44:50.401Z,1001.40
2022-07-25T19:47:23.188Z,1001.40
2022-07-25T19:49:56.132Z,1001.40
2022-07-25T19:52:29.115Z,1001.41
2022-07-25T19:55:02.050Z,1001.43
2022-07-25T19:57:35.156Z,1001.44
2022-07-25T20:00:08.111Z,1001.45
2022-07-25T20:02:41.235Z,1001.48
2022-07-25T20:05:14.413Z,1001.53
2022-07-25T20:07:47.523Z,1001.56
2022-07-25T20:10:21.424Z,1001.58
2022-07-25T20:12:56.934Z,1001.61
2022-07-25T20:15:27.265Z,1001.65
2022-07-25T20:18:00.172Z,1001.66
2022-07-25T20:20:33.170Z,1001.71
2022-07-25T20:23:06.089Z,1001.77
2022-07-25T20:25:39.496Z,1001.83
2022-07-25T20:28:12.435Z,1001.86
2022-07-25T20:30:45.468Z,1001.92
2022-07-25T20:33:18.172Z,1001.97
2022-07-25T20:35:51.228Z,1002.04
2022-07-25T20:38:24.364Z,1002.07
2022-07-25T20:40:57.155Z,1002.13
2022-07-25T20:43:30.107Z,1002.19
2022-07-25T20:46:08.905Z,1002.23
2022-07-25T20:48:36.306Z,1002.29
2022-07-25T20:51:09.230Z,1002.34
2022-07-25T20:53:42.151Z,1002.37
2022-07-25T20:56:15.246Z,1002.40
2022-07-25T20:58:48.467Z,1002.43
2022-07-25T21:01:21.371Z,1002.45
2022-07-25T21:03:54.240Z,1002.50
2022-07-25T21:06:27.535Z,1002.54
2022-07-25T21:09:00.514Z,1002.58
2022-07-25T21:11:35.190Z,1002.61
2022-07-25T21:14:08.852Z,1002.62
2022-07-25T21:16:41.523Z,1002.64
2022-07-25T21:19:14.525Z,1002.66
2022-07-25T21:21:47.460Z,1002.67
2022-07-25T21:24:20.480Z,1002.71
2022-07-25T21:26:53.472Z,1002.74
2022-07-25T21:29:26.511Z,1002.77
2022-07-25T21:31:59.613Z,1002.79
2022-07-25T21:34:32.625Z,1002.80
2022-07-25T21:37:05.536Z,1002.82
2022-07-25T21:39:38.540Z,1002.85
2022-07-25T21:42:11.460Z,1002.87
2022-07-25T21:44:44.527Z,1002.90
2022-07-25T21:47:17.555Z,1002.93
2022-07-25T21:49:50.545Z,1002.96
2022-07-25T21:52:30.038Z,1002.98
2022-07-25T21:54:56.523Z,1002.98
2022-07-25T21:57:29.587Z,1002.98
2022-07-25T22:00:02.515Z,1002.97
2022-07-25T22:02:35.561Z,1002.96
2022-07-25T22:05:08.544Z,1002.96
2022-07-25T22:07:41.536Z,1002.96
2022-07-25T22:10:14.594Z,1002.96
2022-07-25T22:12:47.385Z,1002.95
2022-07-25T22:15:20.606Z,1002.95
2022-07-25T22:17:53.607Z,1002.95
2022-07-25T22:20:26.604Z,1002.93
2022-07-25T22:22:59.549Z,1002.93
2022-07-25T22:25:32.572Z,1002.90
2022-07-25T22:28:05.576Z,1002.86
2022-07-25T22:30:38.527Z,1002.85
2022-07-25T22:33:11.578Z,1002.85
2022-07-25T22:35:44.614Z,1002.86
2022-07-25T22:38:17.594Z,1002.88
2022-07-25T22:40:50.615Z,1002.92
2022-07-25T22:43:23.584Z,1002.94
2022-07-25T22:45:56.633Z,1002.98
2022-07-25T22:48:29.677Z,1003.02
2022-07-25T22:51:02.633Z,1003.05
2022-07-25T22:53:35.623Z,1003.08
2022-07-25T22:56:08.686Z,1003.11
2022-07-25T22:58:41.657Z,1003.14
2022-07-25T23:01:14.657Z,1003.16
2022-07-25T23:03:47.751Z,1003.18
2022-07-25T23:06:20.675Z,1003.19
2022-07-25T23:08:53.619Z,1003.20
2022-07-25T23:11:26.650Z,1003.23
2022-07-25T23:13:59.651Z,1003.26
2022-07-25T23:16:32.741Z,1003.30
2022-07-25T23:19:06.087Z,1003.35
2022-07-25T23:21:39.028Z,1003.37
2022-07-25T23:24:11.645Z,1003.39
2022-07-25T23:26:44.715Z,1003.39
2022-07-25T23:29:17.649Z,1003.41
2022-07-25T23:31:50.748Z,1003.41
2022-07-25T23:34:23.824Z,1003.43
2022-07-25T23:36:59.663Z,1003.44
2022-07-25T23:39:32.716Z,1003.46
2022-07-25T23:42:05.645Z,1003.48
2022-07-25T23:44:38.701Z,1003.48
2022-07-25T23:47:11.820Z,1003.49
2022-07-25T23:49:44.754Z,1003.49
2022-07-25T23:52:17.751Z,1003.50
2022-07-25T23:54:54.626Z,1003.50
2022-07-25T23:57:27.688Z,1003.50
